Time;durP1;ratioP1;P1;durP2;ratioP2;P2;SDS_P1;SDS_P2;PMS_P1;PMS_P2;Temp;Humidity;BMP_temperature;BMP_pressure;BME280_temperature;BME280_humidity;BME280_pressure;Samples;Min_cycle;Max_cycle;Signal;HPM_P1;HPM_P2
2023/10/30 00:01:32;;;;;;;0.38;0.38;;;16.70;58.80;;;;;;5053341;28;20594;-69
2023/10/30 00:03:57;;;;;;;0.50;0.50;;;16.70;58.90;;;;;;5053249;28;20114;-72
2023/10/30 00:06:23;;;;;;;0.40;0.40;;;16.70;58.70;;;;;;5052059;28;20189;-70
2023/10/30 00:08:48;;;;;;;0.40;0.40;;;16.70;58.80;;;;;;5036755;28;20040;-70
2023/10/30 00:11:14;;;;;;;0.40;0.40;;;16.70;58.80;;;;;;5043827;28;20392;-70
2023/10/30 00:13:41;;;;;;;0.50;0.50;;;16.60;58.90;;;;;;5036581;28;20087;-69
2023/10/30 00:16:10;;;;;;;0.60;0.60;;;16.60;59.00;;;;;;5048012;28;20540;-71
2023/10/30 00:18:36;;;;;;;0.40;0.40;;;16.60;59.10;;;;;;5040325;28;20468;-71
2023/10/30 00:21:01;;;;;;;0.40;0.40;;;16.60;59.20;;;;;;5066046;28;20086;-71
2023/10/30 00:23:28;;;;;;;0.63;0.60;;;16.50;59.30;;;;;;5059124;28;20460;-71
2023/10/30 00:25:55;;;;;;;0.40;0.40;;;16.50;59.30;;;;;;5048333;28;20022;-72
2023/10/30 00:28:20;;;;;;;0.30;0.30;;;16.50;59.30;;;;;;5032727;28;20068;-71
2023/10/30 00:30:46;;;;;;;0.30;0.30;;;16.50;59.50;;;;;;5031376;28;20057;-71
2023/10/30 00:33:13;;;;;;;0.75;0.75;;;16.40;59.50;;;;;;5031305;28;20033;-71
2023/10/30 00:35:38;;;;;;;0.40;0.40;;;16.40;59.50;;;;;;5046839;28;20025;-70
2023/10/30 00:38:04;;;;;;;0.40;0.40;;;16.40;59.60;;;;;;5051055;28;20039;-70
2023/10/30 00:40:30;;;;;;;4.60;1.95;;;16.40;59.60;;;;;;5052657;28;20483;-71
2023/10/30 00:42:55;;;;;;;0.52;0.52;;;16.50;59.50;;;;;;5052291;28;20029;-72
2023/10/30 00:45:21;;;;;;;2.38;0.82;;;16.50;59.40;;;;;;5052471;28;20389;-71
2023/10/30 00:47:46;;;;;;;0.50;0.50;;;16.50;59.10;;;;;;5049711;28;20025;-71
2023/10/30 00:50:12;;;;;;;1.10;0.98;;;16.60;59.10;;;;;;5037491;28;20048;-70
2023/10/30 00:52:37;;;;;;;0.35;0.35;;;16.70;58.90;;;;;;5052078;28;20392;-71
2023/10/30 00:55:03;;;;;;;0.40;0.40;;;16.60;58.90;;;;;;5045537;28;20029;-70
2023/10/30 00:57:29;;;;;;;1.17;1.13;;;16.60;58.90;;;;;;5031714;28;20029;-71
2023/10/30 00:59:54;;;;;;;1.05;1.05;;;16.70;58.80;;;;;;5040879;28;20064;-70
2023/10/30 01:02:20;;;;;;;0.40;0.40;;;16.70;58.80;;;;;;5038043;28;20066;-70
2023/10/30 01:04:45;;;;;;;0.50;0.50;;;16.70;58.70;;;;;;5037709;28;20017;-71
2023/10/30 01:07:11;;;;;;;0.40;0.40;;;16.70;58.70;;;;;;5033167;28;20423;-71
2023/10/30 01:09:36;;;;;;;0.60;0.60;;;16.70;58.60;;;;;;5051849;28;20028;-72
2023/10/30 01:12:03;;;;;;;0.50;0.50;;;16.70;58.60;;;;;;5050937;28;20033;-71
2023/10/30 01:14:28;;;;;;;0.60;0.60;;;16.70;58.40;;;;;;5051649;28;20029;-71
2023/10/30 01:16:54;;;;;;;0.40;0.40;;;16.70;58.50;;;;;;5050541;28;20460;-71
2023/10/30 01:19:20;;;;;;;0.40;0.40;;;16.70;58.40;;;;;;5050856;28;20027;-71
2023/10/30 01:21:45;;;;;;;0.40;0.40;;;16.70;58.20;;;;;;5070265;28;20109;-71
2023/10/30 01:24:11;;;;;;;1.25;1.15;;;16.70;58.20;;;;;;5071534;28;20371;-71
2023/10/30 01:26:39;;;;;;;0.38;0.38;;;16.70;58.20;;;;;;5051583;28;20087;-71
2023/10/30 01:29:04;;;;;;;0.50;0.50;;;16.70;58.10;;;;;;5031764;28;20021;-71
2023/10/30 01:31:30;;;;;;;0.40;0.40;;;16.70;58.10;;;;;;5031788;28;20342;-71
2023/10/30 01:33:56;;;;;;;0.40;0.40;;;16.70;58.10;;;;;;5031555;28;20040;-71
2023/10/30 01:36:22;;;;;;;0.73;0.73;;;16.70;58.30;;;;;;5030171;28;20042;-71
2023/10/30 01:38:48;;;;;;;0.40;0.40;;;16.70;58.20;;;;;;5030725;28;20033;-71
2023/10/30 01:41:14;;;;;;;0.38;0.38;;;16.70;58.00;;;;;;5030124;28;20120;-71
2023/10/30 01:43:39;;;;;;;0.50;0.50;;;16.70;58.00;;;;;;5031431;28;20033;-72
2023/10/30 01:46:08;;;;;;;0.77;0.63;;;16.70;58.10;;;;;;5031545;28;20033;-71
2023/10/30 01:48:34;;;;;;;0.70;0.70;;;16.70;58.10;;;;;;5031130;28;20493;-71
2023/10/30 01:51:01;;;;;;;0.65;0.57;;;16.60;58.20;;;;;;5031347;28;20029;-71
2023/10/30 01:53:29;;;;;;;0.35;0.35;;;16.70;58.10;;;;;;5031295;28;20037;-71
2023/10/30 01:55:56;;;;;;;0.57;0.57;;;16.60;58.00;;;;;;5036908;28;20033;-71
2023/10/30 01:58:23;;;;;;;0.40;0.40;;;16.70;58.00;;;;;;5037926;28;20492;-71
2023/10/30 02:00:50;;;;;;;0.40;0.40;;;16.70;57.90;;;;;;5032944;28;20105;-71
2023/10/30 02:03:16;;;;;;;0.40;0.40;;;16.70;58.00;;;;;;5035462;28;20492;-71
2023/10/30 02:05:41;;;;;;;0.35;0.35;;;16.70;57.90;;;;;;5051250;28;20080;-70
2023/10/30 02:08:08;;;;;;;0.40;0.40;;;16.80;57.80;;;;;;5050923;28;20029;-71
2023/10/30 02:10:34;;;;;;;0.43;0.43;;;16.80;57.90;;;;;;5051173;28;20560;-70
2023/10/30 02:13:03;;;;;;;0.40;0.40;;;16.80;57.90;;;;;;5050834;28;20025;-71
2023/10/30 02:15:28;;;;;;;1.83;1.13;;;16.90;57.80;;;;;;5046148;28;20053;-71
2023/10/30 02:17:54;;;;;;;0.40;0.40;;;16.90;57.80;;;;;;5031056;28;20029;-70
2023/10/30 02:20:19;;;;;;;0.32;0.32;;;16.90;57.70;;;;;;5037738;28;20033;-71
2023/10/30 02:22:45;;;;;;;0.60;0.60;;;16.80;57.70;;;;;;5044801;28;20465;-71
2023/10/30 02:25:10;;;;;;;0.40;0.40;;;16.80;57.60;;;;;;5037111;28;20021;-71
2023/10/30 02:27:36;;;;;;;0.45;0.45;;;16.80;57.70;;;;;;5029482;28;20482;-71
2023/10/30 02:30:01;;;;;;;0.52;0.52;;;16.80;57.70;;;;;;5040038;28;20064;-70
2023/10/30 02:32:27;;;;;;;0.40;0.40;;;16.80;57.80;;;;;;5030868;28;20026;-69
2023/10/30 02:34:52;;;;;;;0.40;0.40;;;16.80;57.90;;;;;;5034370;28;20013;-71
2023/10/30 02:37:18;;;;;;;1.33;1.23;;;16.80;57.80;;;;;;5036944;28;20045;-72
2023/10/30 02:39:43;;;;;;;0.40;0.40;;;16.70;57.90;;;;;;5038989;28;20485;-70
2023/10/30 02:42:09;;;;;;;0.50;0.50;;;16.70;58.10;;;;;;5032923;28;20504;-70
2023/10/30 02:44:35;;;;;;;0.50;0.50;;;16.60;58.20;;;;;;5039574;28;20022;-70
2023/10/30 02:47:00;;;;;;;0.30;0.30;;;16.60;58.20;;;;;;5043260;28;20029;-71
2023/10/30 02:49:26;;;;;;;0.65;0.65;;;16.60;58.40;;;;;;5051375;28;20416;-70
2023/10/30 02:51:52;;;;;;;0.40;0.40;;;16.50;58.40;;;;;;5054726;28;20029;-71
2023/10/30 02:54:18;;;;;;;0.50;0.50;;;16.50;58.50;;;;;;5054715;28;20032;-71
2023/10/30 02:56:43;;;;;;;0.40;0.40;;;16.50;58.50;;;;;;5054638;28;20037;-71
2023/10/30 02:59:09;;;;;;;0.50;0.50;;;16.40;58.70;;;;;;5054196;28;20025;-71
2023/10/30 03:01:35;;;;;;;0.50;0.50;;;16.40;58.80;;;;;;5054589;28;20025;-71
2023/10/30 03:04:01;;;;;;;0.40;0.40;;;16.50;58.90;;;;;;5054237;28;20083;-71
2023/10/30 03:06:27;;;;;;;0.40;0.40;;;16.50;58.90;;;;;;5043053;28;20057;-71
2023/10/30 03:08:52;;;;;;;0.40;0.40;;;16.50;59.00;;;;;;5039887;28;20048;-70
2023/10/30 03:11:18;;;;;;;1.20;1.10;;;16.50;59.10;;;;;;5039939;28;20477;-70
2023/10/30 03:13:44;;;;;;;0.45;0.45;;;16.50;59.00;;;;;;5037753;28;20053;-70
2023/10/30 03:16:09;;;;;;;0.30;0.30;;;16.60;58.90;;;;;;5033980;28;20061;-71
2023/10/30 03:18:35;;;;;;;0.50;0.50;;;16.50;58.80;;;;;;5048949;28;20099;-71
2023/10/30 03:21:00;;;;;;;0.40;0.40;;;16.50;58.80;;;;;;5058587;28;20416;-70
2023/10/30 03:23:26;;;;;;;0.40;0.40;;;16.50;58.90;;;;;;5035672;28;20029;-70
2023/10/30 03:25:51;;;;;;;0.40;0.40;;;16.50;59.10;;;;;;5034674;28;20065;-70
2023/10/30 03:28:17;;;;;;;0.80;0.80;;;16.50;59.00;;;;;;5046761;28;20025;-71
2023/10/30 03:30:42;;;;;;;0.60;0.60;;;16.60;58.90;;;;;;5042341;28;20033;-71
2023/10/30 03:33:08;;;;;;;0.40;0.40;;;16.60;58.90;;;;;;5049744;28;20031;-72
2023/10/30 03:35:40;;;;;;;0.40;0.40;;;16.60;58.80;;;;;;5033681;28;20052;-70
2023/10/30 03:38:06;;;;;;;0.50;0.50;;;16.60;59.10;;;;;;5040382;28;20155;-71
2023/10/30 03:40:31;;;;;;;0.40;0.40;;;16.60;59.10;;;;;;5042149;28;20524;-72
2023/10/30 03:42:57;;;;;;;0.50;0.50;;;16.70;59.10;;;;;;5044019;28;20512;-69
2023/10/30 03:45:23;;;;;;;0.40;0.40;;;16.60;59.10;;;;;;5034737;28;20025;-69
2023/10/30 03:47:49;;;;;;;0.47;0.47;;;16.60;59.10;;;;;;5036508;28;20028;-71
2023/10/30 03:50:16;;;;;;;1.05;1.05;;;16.60;59.10;;;;;;5049709;28;20116;-71
2023/10/30 03:52:43;;;;;;;0.40;0.40;;;16.60;59.10;;;;;;5053508;28;20110;-71
2023/10/30 03:55:09;;;;;;;0.45;0.45;;;16.50;59.20;;;;;;5043697;28;20428;-71
2023/10/30 03:57:34;;;;;;;0.50;0.50;;;16.50;59.20;;;;;;5034168;28;20025;-72
2023/10/30 04:00:00;;;;;;;1.38;1.27;;;16.50;59.30;;;;;;5039025;28;20029;-71
2023/10/30 04:02:25;;;;;;;0.45;0.45;;;16.50;59.40;;;;;;5045976;28;20021;-71
2023/10/30 04:04:51;;;;;;;0.93;0.93;;;16.50;59.40;;;;;;5033528;28;20029;-70
2023/10/30 04:07:16;;;;;;;0.40;0.40;;;16.50;59.40;;;;;;5032252;28;20024;-70
2023/10/30 04:09:42;;;;;;;0.40;0.40;;;16.40;59.50;;;;;;5033533;28;20091;-71
2023/10/30 04:12:08;;;;;;;0.50;0.50;;;16.40;59.60;;;;;;5034050;28;20037;-71
2023/10/30 04:14:33;;;;;;;0.50;0.50;;;16.40;59.70;;;;;;5045561;28;20095;-71
2023/10/30 04:17:02;;;;;;;1.92;0.90;;;16.40;59.70;;;;;;5047366;28;20449;-71
2023/10/30 04:19:28;;;;;;;0.40;0.40;;;16.40;59.80;;;;;;5035336;28;20400;-71
2023/10/30 04:21:53;;;;;;;0.50;0.50;;;16.30;59.80;;;;;;5045999;28;20021;-70
2023/10/30 04:24:19;;;;;;;0.45;0.45;;;16.30;59.80;;;;;;5038865;28;20075;-70
2023/10/30 04:26:45;;;;;;;0.63;0.63;;;16.30;59.90;;;;;;5032900;28;20033;-70
2023/10/30 04:29:10;;;;;;;0.60;0.60;;;16.30;59.90;;;;;;5040714;28;20032;-70
2023/10/30 04:31:36;;;;;;;0.45;0.45;;;16.30;60.00;;;;;;5053022;28;20183;-70
2023/10/30 04:34:01;;;;;;;0.50;0.50;;;16.30;60.00;;;;;;5040329;28;20033;-70
2023/10/30 04:36:27;;;;;;;0.40;0.40;;;16.20;60.10;;;;;;5032786;28;20037;-70
2023/10/30 04:38:52;;;;;;;0.50;0.50;;;16.20;60.20;;;;;;5032350;28;20483;-70
2023/10/30 04:41:18;;;;;;;0.40;0.40;;;16.20;60.20;;;;;;5032426;28;20029;-71
2023/10/30 04:43:43;;;;;;;0.50;0.50;;;16.20;60.20;;;;;;5032619;28;20040;-71
2023/10/30 04:46:09;;;;;;;0.30;0.30;;;16.20;60.20;;;;;;5042711;28;20036;-70
2023/10/30 04:48:37;;;;;;;0.52;0.52;;;16.20;60.30;;;;;;5051992;28;20481;-70
2023/10/30 04:51:03;;;;;;;1.05;0.90;;;16.20;60.30;;;;;;5052378;28;20542;-70
2023/10/30 04:53:29;;;;;;;0.70;0.70;;;16.20;60.40;;;;;;5051993;28;20025;-71
2023/10/30 04:55:56;;;;;;;0.55;0.55;;;16.20;60.40;;;;;;5052239;28;20025;-70
2023/10/30 04:58:22;;;;;;;0.50;0.50;;;16.20;60.50;;;;;;5051944;28;20043;-71
2023/10/30 05:00:48;;;;;;;0.50;0.50;;;16.10;60.50;;;;;;5051064;28;20532;-71
2023/10/30 05:03:13;;;;;;;0.50;0.50;;;16.10;60.50;;;;;;5053527;28;20028;-73
2023/10/30 05:05:39;;;;;;;0.40;0.40;;;16.10;60.60;;;;;;5053110;28;20032;-73
2023/10/30 05:08:05;;;;;;;0.40;0.40;;;16.10;60.60;;;;;;5053329;28;20453;-73
2023/10/30 05:10:30;;;;;;;0.40;0.40;;;16.10;60.70;;;;;;5053467;28;20488;-73
2023/10/30 05:12:56;;;;;;;0.50;0.50;;;16.10;60.70;;;;;;5031083;28;20022;-73
2023/10/30 05:15:22;;;;;;;0.40;0.40;;;16.10;60.70;;;;;;5033871;28;20122;-73
2023/10/30 05:17:47;;;;;;;0.73;0.57;;;16.10;60.70;;;;;;5032733;28;20480;-73
2023/10/30 05:20:13;;;;;;;0.70;0.70;;;16.10;60.80;;;;;;5030802;28;20022;-73
2023/10/30 05:22:39;;;;;;;0.40;0.40;;;16.10;60.80;;;;;;5041204;28;20021;-73
2023/10/30 05:25:05;;;;;;;0.55;0.55;;;16.10;60.80;;;;;;5050598;28;20361;-73
2023/10/30 05:27:31;;;;;;;0.40;0.40;;;16.10;60.80;;;;;;5034080;28;20104;-73
2023/10/30 05:29:57;;;;;;;0.43;0.43;;;16.00;60.80;;;;;;5031865;28;20049;-73
2023/10/30 05:32:23;;;;;;;0.40;0.40;;;16.00;60.80;;;;;;5031978;28;20068;-73
2023/10/30 05:34:49;;;;;;;0.55;0.55;;;16.00;60.80;;;;;;5030655;28;20033;-74
2023/10/30 05:37:15;;;;;;;0.40;0.40;;;16.00;60.90;;;;;;5031288;28;20021;-73
2023/10/30 05:39:42;;;;;;;0.30;0.30;;;16.00;61.00;;;;;;5031571;28;20033;-73
2023/10/30 05:42:08;;;;;;;2.25;0.75;;;16.00;60.90;;;;;;5032233;28;20048;-73
2023/10/30 05:44:33;;;;;;;0.50;0.50;;;15.90;61.00;;;;;;5031932;28;20061;-73
2023/10/30 05:46:59;;;;;;;0.40;0.40;;;15.90;61.10;;;;;;5031870;28;20104;-73
2023/10/30 05:49:26;;;;;;;0.40;0.40;;;15.90;61.10;;;;;;5032602;28;20041;-73
2023/10/30 05:51:55;;;;;;;0.40;0.40;;;15.80;61.10;;;;;;5034460;28;20120;-73
2023/10/30 05:54:21;;;;;;;0.63;0.63;;;15.90;61.20;;;;;;5046951;28;20048;-73
2023/10/30 05:56:48;;;;;;;0.45;0.45;;;15.80;61.20;;;;;;5047499;28;20032;-74
2023/10/30 05:59:13;;;;;;;0.47;0.47;;;15.80;61.30;;;;;;5029835;28;20033;-74
2023/10/30 06:01:39;;;;;;;0.50;0.50;;;15.80;61.30;;;;;;5039186;28;20464;-73
2023/10/30 06:04:05;;;;;;;0.77;0.77;;;15.80;61.30;;;;;;5043970;28;20032;-72
2023/10/30 06:06:30;;;;;;;0.40;0.40;;;15.80;61.30;;;;;;5048236;28;20051;-72
2023/10/30 06:08:56;;;;;;;0.60;0.60;;;15.80;61.30;;;;;;5037082;28;20026;-72
2023/10/30 06:11:22;;;;;;;0.43;0.43;;;15.80;61.30;;;;;;5032623;28;20042;-70
2023/10/30 06:13:47;;;;;;;0.40;0.40;;;15.70;61.40;;;;;;5048605;28;20033;-70
2023/10/30 06:16:15;;;;;;;2.17;0.90;;;15.70;61.50;;;;;;5045145;28;20485;-70
2023/10/30 06:18:40;;;;;;;0.50;0.50;;;15.70;61.50;;;;;;5037224;28;20026;-69
2023/10/30 06:21:07;;;;;;;0.50;0.50;;;15.70;61.50;;;;;;5044915;28;20036;-70
2023/10/30 06:23:34;;;;;;;0.40;0.40;;;15.60;61.50;;;;;;5037568;28;20036;-70
2023/10/30 06:25:59;;;;;;;0.73;0.73;;;15.60;61.60;;;;;;5050364;28;20057;-70
2023/10/30 06:28:25;;;;;;;0.60;0.60;;;15.60;61.80;;;;;;5042111;28;20491;-70
2023/10/30 06:30:50;;;;;;;0.40;0.40;;;15.60;61.90;;;;;;5054971;28;20108;-70
2023/10/30 06:33:16;;;;;;;0.43;0.43;;;15.60;61.80;;;;;;5054711;28;20551;-71
2023/10/30 06:35:41;;;;;;;0.40;0.40;;;15.60;61.80;;;;;;5054758;28;20029;-71
2023/10/30 06:38:07;;;;;;;0.40;0.40;;;15.60;61.80;;;;;;5053309;28;20035;-72
2023/10/30 06:40:32;;;;;;;0.93;0.93;;;15.60;61.90;;;;;;5044997;28;20038;-71
2023/10/30 06:42:58;;;;;;;0.47;0.47;;;15.50;61.90;;;;;;5034666;28;20068;-71
2023/10/30 06:45:23;;;;;;;0.60;0.60;;;15.60;62.00;;;;;;5034757;28;20025;-72
2023/10/30 06:47:49;;;;;;;0.57;0.57;;;15.60;62.10;;;;;;5034572;28;20021;-70
2023/10/30 06:50:14;;;;;;;0.50;0.50;;;15.60;62.00;;;;;;5039981;28;20060;-71
2023/10/30 06:52:40;;;;;;;1.52;1.42;;;15.60;62.10;;;;;;5053390;28;20040;-71
2023/10/30 06:55:06;;;;;;;0.30;0.30;;;15.60;62.20;;;;;;5054793;28;20025;-71
2023/10/30 06:57:31;;;;;;;0.40;0.40;;;15.70;62.20;;;;;;5041087;28;20025;-71
2023/10/30 06:59:58;;;;;;;0.60;0.60;;;15.60;62.10;;;;;;5034011;28;20029;-71
2023/10/30 07:02:24;;;;;;;0.40;0.40;;;15.70;62.20;;;;;;5047351;28;20442;-71
2023/10/30 07:04:49;;;;;;;0.40;0.40;;;15.70;62.20;;;;;;5053098;28;20055;-71
2023/10/30 07:07:15;;;;;;;0.47;0.47;;;15.70;62.20;;;;;;5051322;28;20032;-71
2023/10/30 07:09:40;;;;;;;0.40;0.40;;;15.70;62.30;;;;;;5049436;28;20028;-72
2023/10/30 07:12:07;;;;;;;0.40;0.40;;;15.70;62.20;;;;;;5039825;28;20099;-71
2023/10/30 07:14:33;;;;;;;0.50;0.50;;;15.70;62.20;;;;;;5048903;28;20037;-71
2023/10/30 07:16:58;;;;;;;0.40;0.40;;;15.70;62.30;;;;;;5048389;28;20040;-70
2023/10/30 07:19:24;;;;;;;0.40;0.40;;;15.80;62.30;;;;;;5046686;28;20041;-72
2023/10/30 07:21:49;;;;;;;0.40;0.40;;;15.80;62.30;;;;;;5041999;28;20025;-74
2023/10/30 07:24:15;;;;;;;0.50;0.50;;;15.90;62.30;;;;;;5043008;28;20033;-74
2023/10/30 07:26:40;;;;;;;1.23;1.13;;;16.00;62.20;;;;;;5035887;28;20030;-73
2023/10/30 07:29:06;;;;;;;0.50;0.50;;;15.90;62.20;;;;;;5048390;28;20033;-74
2023/10/30 07:31:31;;;;;;;0.40;0.40;;;15.90;62.10;;;;;;5043567;28;20049;-74
2023/10/30 07:33:58;;;;;;;0.40;0.40;;;16.00;62.10;;;;;;5038322;28;20021;-74
2023/10/30 07:36:23;;;;;;;0.40;0.40;;;16.00;62.00;;;;;;5049778;28;20871;-74
2023/10/30 07:38:49;;;;;;;0.40;0.40;;;16.00;61.90;;;;;;5042676;28;20109;-74
2023/10/30 07:41:15;;;;;;;1.02;0.95;;;16.00;61.90;;;;;;5041305;28;20052;-74
2023/10/30 07:43:41;;;;;;;0.40;0.40;;;16.00;61.90;;;;;;5054173;28;20022;-74
2023/10/30 07:46:06;;;;;;;0.77;0.77;;;16.00;61.90;;;;;;5055015;28;20040;-74
2023/10/30 07:48:32;;;;;;;0.50;0.50;;;15.90;61.90;;;;;;5043184;28;20535;-74
2023/10/30 07:51:02;;;;;;;0.40;0.40;;;15.90;61.80;;;;;;5043899;28;20041;-73
2023/10/30 07:53:29;;;;;;;0.63;0.63;;;15.90;61.70;;;;;;5054627;28;20048;-73
2023/10/30 07:55:55;;;;;;;0.40;0.40;;;15.90;61.80;;;;;;5035520;28;20029;-74
2023/10/30 07:58:22;;;;;;;0.35;0.35;;;15.80;61.80;;;;;;5040147;28;20036;-74
2023/10/30 08:00:48;;;;;;;0.75;0.75;;;15.80;61.90;;;;;;5038265;28;20104;-74
2023/10/30 08:03:14;;;;;;;0.40;0.40;;;15.80;62.10;;;;;;5037585;28;20159;-73
2023/10/30 08:05:40;;;;;;;0.40;0.40;;;15.80;62.10;;;;;;5039839;28;20025;-73
2023/10/30 08:08:06;;;;;;;8.23;0.93;;;15.90;62.70;;;;;;5037519;28;20029;-73
2023/10/30 08:10:31;;;;;;;0.40;0.40;;;16.10;63.70;;;;;;5047248;28;20047;-74
2023/10/30 08:12:58;;;;;;;1.75;0.90;;;16.50;65.40;;;;;;5039409;28;20041;-74
2023/10/30 08:15:23;;;;;;;0.40;0.40;;;17.10;66.50;;;;;;5049914;28;20037;-74
2023/10/30 08:17:49;;;;;;;7.03;1.60;;;17.70;67.20;;;;;;5055599;28;20051;-75
2023/10/30 08:20:14;;;;;;;0.55;0.55;;;18.30;66.80;;;;;;5039398;28;20468;-75
2023/10/30 08:22:40;;;;;;;0.40;0.40;;;18.90;64.50;;;;;;5036706;28;20075;-75
2023/10/30 08:25:06;;;;;;;0.60;0.60;;;19.40;63.70;;;;;;5043546;28;20028;-75
2023/10/30 08:27:33;;;;;;;1.35;1.00;;;20.00;61.50;;;;;;5035279;28;20065;-75
2023/10/30 08:29:59;;;;;;;0.50;0.50;;;20.30;58.70;;;;;;5053482;28;20037;-74
2023/10/30 08:32:25;;;;;;;0.60;0.60;;;20.70;58.60;;;;;;5055364;28;20030;-75
2023/10/30 08:34:51;;;;;;;0.50;0.50;;;21.20;57.70;;;;;;5036611;28;20036;-74
2023/10/30 08:37:16;;;;;;;1.52;1.05;;;21.60;55.30;;;;;;5050865;28;20465;-74
2023/10/30 08:39:42;;;;;;;1.17;1.05;;;22.00;53.60;;;;;;5047515;28;20488;-74
2023/10/30 08:42:08;;;;;;;0.40;0.40;;;22.30;53.00;;;;;;5049329;28;20071;-74
2023/10/30 08:44:33;;;;;;;0.40;0.40;;;22.70;52.40;;;;;;5046029;28;20026;-73
2023/10/30 08:46:59;;;;;;;0.40;0.40;;;23.00;51.40;;;;;;5044626;28;20524;-74
2023/10/30 08:49:25;;;;;;;0.50;0.50;;;23.20;49.90;;;;;;5043221;28;20029;-75
2023/10/30 08:51:51;;;;;;;0.40;0.40;;;23.30;49.30;;;;;;5038374;28;20058;-75
2023/10/30 08:54:16;;;;;;;0.50;0.50;;;23.60;49.20;;;;;;5037770;28;20037;-75
2023/10/30 08:56:43;;;;;;;2.38;1.08;;;23.70;48.10;;;;;;5042328;28;20041;-74
2023/10/30 08:59:09;;;;;;;0.55;0.55;;;23.80;46.50;;;;;;5041288;28;20424;-75
2023/10/30 09:01:34;;;;;;;0.50;0.50;;;23.80;45.30;;;;;;5049157;28;20110;-74
2023/10/30 09:04:00;;;;;;;0.77;0.77;;;23.80;45.10;;;;;;5053935;28;20076;-75
2023/10/30 09:06:27;;;;;;;0.63;0.63;;;23.80;45.60;;;;;;5036526;28;20504;-75
2023/10/30 09:08:53;;;;;;;1.23;0.70;;;23.90;45.20;;;;;;5040379;28;20029;-76
2023/10/30 09:11:18;;;;;;;0.40;0.40;;;24.00;45.20;;;;;;5042072;28;20533;-75
2023/10/30 09:13:44;;;;;;;0.52;0.52;;;24.30;45.10;;;;;;5040239;28;20054;-76
2023/10/30 09:16:11;;;;;;;1.00;0.82;;;24.60;44.50;;;;;;5056960;28;20036;-75
2023/10/30 09:18:37;;;;;;;0.40;0.40;;;24.70;43.50;;;;;;5058652;28;20023;-75
2023/10/30 09:21:03;;;;;;;0.93;0.93;;;24.90;43.70;;;;;;5043684;28;20034;-75
2023/10/30 09:23:29;;;;;;;0.60;0.60;;;25.20;43.50;;;;;;5039544;28;20435;-75
2023/10/30 09:25:54;;;;;;;0.90;0.88;;;25.50;43.70;;;;;;5039829;28;20057;-75
2023/10/30 09:28:20;;;;;;;0.60;0.57;;;25.90;42.70;;;;;;5059232;28;20452;-75
2023/10/30 09:30:45;;;;;;;0.50;0.50;;;26.20;42.60;;;;;;5044346;28;20116;-76
2023/10/30 09:33:11;;;;;;;0.40;0.40;;;26.40;39.90;;;;;;5052737;28;20104;-75
2023/10/30 09:35:38;;;;;;;0.50;0.50;;;26.30;39.60;;;;;;5039310;28;20116;-76
2023/10/30 09:38:04;;;;;;;0.90;0.90;;;26.30;39.80;;;;;;5040130;28;20028;-75
2023/10/30 09:40:30;;;;;;;0.60;0.60;;;26.30;39.40;;;;;;5052711;28;20084;-75
2023/10/30 09:42:56;;;;;;;2.08;1.30;;;26.20;39.10;;;;;;5049085;28;20036;-71
2023/10/30 09:45:23;;;;;;;0.50;0.50;;;26.00;39.20;;;;;;5040985;28;20401;-72
2023/10/30 09:47:57;;;;;;;1.48;0.93;;;26.00;39.30;;;;;;5035433;28;20027;-73
2023/10/30 09:50:25;;;;;;;0.45;0.45;;;25.80;39.10;;;;;;5048595;28;20037;-72
2023/10/30 09:52:54;;;;;;;0.60;0.60;;;25.80;39.40;;;;;;5049740;28;20029;-72
2023/10/30 09:55:22;;;;;;;0.40;0.40;;;25.70;39.60;;;;;;5049652;28;20515;-72
2023/10/30 09:57:48;;;;;;;0.55;0.55;;;25.70;40.00;;;;;;5032064;28;20045;-72
2023/10/30 10:00:16;;;;;;;0.50;0.50;;;25.60;39.90;;;;;;5037338;28;20036;-72
2023/10/30 10:02:42;;;;;;;1.02;0.70;;;25.30;39.50;;;;;;5042109;28;20507;-72
2023/10/30 10:05:09;;;;;;;0.55;0.55;;;25.10;40.20;;;;;;5036658;28;20112;-73
2023/10/30 10:07:35;;;;;;;0.40;0.40;;;24.90;40.40;;;;;;5049674;28;20029;-73
2023/10/30 10:10:03;;;;;;;0.40;0.40;;;24.90;40.80;;;;;;5044488;28;20087;-73
2023/10/30 10:12:30;;;;;;;0.43;0.43;;;25.00;41.00;;;;;;5029952;28;20041;-72
2023/10/30 10:14:56;;;;;;;0.47;0.47;;;25.10;41.30;;;;;;5038099;28;20436;-72
2023/10/30 10:17:22;;;;;;;0.52;0.52;;;25.10;40.70;;;;;;5050659;28;20045;-72
2023/10/30 10:19:48;;;;;;;0.40;0.40;;;25.00;40.00;;;;;;5039962;28;20394;-72
2023/10/30 10:22:32;;;;;;;0.50;0.50;;;24.70;40.10;;;;;;5041649;28;20036;-72
2023/10/30 10:25:00;;;;;;;0.43;0.43;;;24.50;40.40;;;;;;5038673;28;20562;-72
2023/10/30 10:27:26;;;;;;;0.50;0.50;;;24.30;41.40;;;;;;5032201;28;20124;-72
2023/10/30 10:29:55;;;;;;;0.40;0.40;;;24.30;42.00;;;;;;5030014;28;20032;-72
2023/10/30 10:32:26;;;;;;;0.43;0.43;;;24.40;42.20;;;;;;5034537;28;20024;-72
2023/10/30 10:34:53;;;;;;;0.75;0.75;;;24.50;42.10;;;;;;5039629;28;20497;-72
2023/10/30 10:37:19;;;;;;;0.40;0.40;;;24.50;41.80;;;;;;5030986;28;20509;-73
2023/10/30 10:39:55;;;;;;;0.60;0.60;;;24.50;42.30;;;;;;5031426;28;20029;-73
2023/10/30 10:42:22;;;;;;;0.40;0.40;;;24.50;42.10;;;;;;5031046;28;20040;-72
2023/10/30 10:44:50;;;;;;;1.13;0.80;;;24.60;41.90;;;;;;5036573;28;20128;-73
2023/10/30 10:47:16;;;;;;;0.50;0.50;;;24.70;42.20;;;;;;5029958;28;20026;-71
2023/10/30 10:49:42;;;;;;;0.60;0.60;;;24.70;42.60;;;;;;5050378;28;20251;-72
2023/10/30 10:52:12;;;;;;;0.40;0.40;;;24.80;42.50;;;;;;5052721;28;20036;-74
2023/10/30 10:54:52;;;;;;;0.47;0.47;;;24.90;42.70;;;;;;5051327;28;20040;-74
2023/10/30 10:57:22;;;;;;;0.70;0.70;;;25.10;41.90;;;;;;5053872;28;20068;-74
2023/10/30 10:59:55;;;;;;;0.40;0.40;;;25.20;40.30;;;;;;5046514;28;20039;-74
2023/10/30 11:02:37;;;;;;;1.17;0.60;;;25.10;40.00;;;;;;5040847;28;20041;-74
2023/10/30 11:05:05;;;;;;;0.50;0.50;;;25.10;39.80;;;;;;5053657;28;20446;-74
2023/10/30 11:07:50;;;;;;;0.82;0.80;;;25.10;39.90;;;;;;5031753;28;20472;-74
2023/10/30 11:10:32;;;;;;;0.60;0.60;;;25.00;39.80;;;;;;5033237;28;20113;-74
2023/10/30 11:13:28;;;;;;;0.40;0.40;;;24.90;40.10;;;;;;5055804;28;20025;-74
2023/10/30 11:16:11;;;;;;;0.55;0.55;;;25.00;40.10;;;;;;5051706;28;20041;-74
2023/10/30 11:18:38;;;;;;;0.50;0.50;;;25.10;39.90;;;;;;5035447;28;20384;-75
2023/10/30 11:21:16;;;;;;;0.57;0.57;;;25.30;40.10;;;;;;5038134;28;20353;-75
2023/10/30 11:23:44;;;;;;;0.40;0.40;;;25.30;39.30;;;;;;5038615;28;20104;-75
2023/10/30 11:26:30;;;;;;;2.00;1.27;;;25.50;38.70;;;;;;5041895;28;20465;-74
2023/10/30 11:28:57;;;;;;;0.47;0.47;;;25.60;39.20;;;;;;5029209;28;20037;-74
2023/10/30 11:31:22;;;;;;;0.52;0.52;;;25.70;39.00;;;;;;5034180;28;20540;-74
2023/10/30 11:33:48;;;;;;;0.45;0.45;;;25.80;38.40;;;;;;5048695;28;20063;-74
2023/10/30 11:36:18;;;;;;;0.45;0.45;;;25.80;37.60;;;;;;5055525;28;20384;-74
2023/10/30 11:38:59;;;;;;;0.50;0.50;;;25.70;37.60;;;;;;5047611;28;20025;-73
2023/10/30 11:41:27;;;;;;;0.40;0.40;;;25.80;37.40;;;;;;5054954;28;20033;-74
2023/10/30 11:44:15;;;;;;;0.40;0.40;;;25.80;37.40;;;;;;5055393;28;20031;-74
2023/10/30 11:46:43;;;;;;;0.40;0.40;;;25.80;37.30;;;;;;5035572;28;20033;-75
2023/10/30 11:49:11;;;;;;;0.50;0.50;;;25.80;37.50;;;;;;5042734;28;20039;-74
2023/10/30 11:51:36;;;;;;;0.50;0.50;;;25.90;36.70;;;;;;5045871;28;20037;-74
2023/10/30 11:54:02;;;;;;;0.50;0.50;;;25.90;37.20;;;;;;5054736;28;20033;-75
2023/10/30 11:56:28;;;;;;;0.47;0.47;;;25.90;38.00;;;;;;5050373;28;20028;-74
2023/10/30 11:58:53;;;;;;;0.38;0.38;;;26.10;37.30;;;;;;5054563;28;20380;-75
2023/10/30 12:01:19;;;;;;;0.50;0.50;;;26.00;36.70;;;;;;5052665;28;20044;-74
2023/10/30 12:03:45;;;;;;;0.85;0.85;;;25.90;36.90;;;;;;5055917;28;20029;-74
2023/10/30 12:06:10;;;;;;;0.50;0.50;;;25.80;36.50;;;;;;5055276;28;20513;-75
2023/10/30 12:08:36;;;;;;;0.50;0.50;;;25.70;36.30;;;;;;5039345;28;20032;-74
2023/10/30 12:11:01;;;;;;;1.42;0.82;;;25.50;36.30;;;;;;5034055;28;20064;-75
2023/10/30 12:13:27;;;;;;;0.40;0.40;;;25.30;36.90;;;;;;5035033;28;20151;-74
2023/10/30 12:15:53;;;;;;;0.40;0.40;;;25.30;37.30;;;;;;5052297;28;20037;-74
2023/10/30 12:18:18;;;;;;;0.40;0.40;;;25.20;37.10;;;;;;5053378;28;20029;-74
2023/10/30 12:20:45;;;;;;;0.40;0.40;;;24.90;37.00;;;;;;5036229;28;20044;-74
2023/10/30 12:23:11;;;;;;;0.40;0.40;;;24.60;37.60;;;;;;5033402;28;20032;-73
2023/10/30 12:25:37;;;;;;;0.40;0.40;;;24.30;38.00;;;;;;5046056;28;20428;-73
2023/10/30 12:28:04;;;;;;;0.40;0.40;;;24.10;38.50;;;;;;5032820;28;20029;-73
2023/10/30 12:30:34;;;;;;;0.40;0.40;;;23.90;38.80;;;;;;5032794;28;20036;-73
2023/10/30 12:33:00;;;;;;;0.40;0.40;;;23.70;39.10;;;;;;5042772;28;20079;-73
2023/10/30 12:35:26;;;;;;;0.52;0.52;;;23.40;39.40;;;;;;5053499;28;20041;-74
2023/10/30 12:37:52;;;;;;;0.40;0.40;;;23.20;39.70;;;;;;5053455;28;20025;-75
2023/10/30 12:40:18;;;;;;;0.50;0.50;;;23.10;40.10;;;;;;5050995;28;20032;-75
2023/10/30 12:42:48;;;;;;;0.40;0.40;;;23.00;40.50;;;;;;5032879;28;20124;-75
2023/10/30 12:45:13;;;;;;;0.40;0.40;;;23.00;40.90;;;;;;5034577;28;20096;-75